createdAt,value
2022-08-24T00:01:47.635Z,100655.06
2022-08-24T00:04:16.241Z,100651.34
2022-08-24T00:06:44.643Z,100660.75
2022-08-24T00:09:11.526Z,100666.69
2022-08-24T00:11:38.577Z,100664.31
2022-08-24T00:14:05.539Z,100655.72
2022-08-24T00:16:32.493Z,100663.50
2022-08-24T00:19:00.606Z,100661.38
2022-08-24T00:21:27.659Z,100664.88
2022-08-24T00:23:54.640Z,100657.03
2022-08-24T00:26:29.030Z,100665.88
2022-08-24T00:28:58.205Z,100674.06
2022-08-24T00:31:26.315Z,100667.31
2022-08-24T00:33:54.398Z,100678.19
2022-08-24T00:36:21.940Z,100690.72
2022-08-24T00:38:49.643Z,100682.31
2022-08-24T00:41:18.007Z,100677.44
2022-08-24T00:43:58.390Z,100677.88
2022-08-24T00:47:00.051Z,100677.88
2022-08-24T00:49:44.598Z,100669.72
2022-08-24T00:52:45.200Z,100673.56
2022-08-24T00:55:20.793Z,100673.38
2022-08-24T00:57:51.562Z,100673.38
2022-08-24T01:00:25.444Z,100675.03
2022-08-24T01:02:59.412Z,100678.50
2022-08-24T01:05:26.383Z,100673.81
2022-08-24T01:07:53.521Z,100671.59
2022-08-24T01:10:27.794Z,100670.34
2022-08-24T01:13:05.728Z,100667.91
2022-08-24T01:15:45.860Z,100669.94
2022-08-24T01:18:48.699Z,100673.19
2022-08-24T01:21:36.736Z,100665.19
2022-08-24T01:24:11.094Z,100668.41
2022-08-24T01:26:44.448Z,100673.13
2022-08-24T01:29:20.949Z,100668.47
2022-08-24T01:31:51.310Z,100662.56
2022-08-24T01:34:18.479Z,100658.28
2022-08-24T01:36:54.231Z,100657.03
2022-08-24T01:39:40.228Z,100662.88
2022-08-24T01:42:07.779Z,100659.81
2022-08-24T01:44:37.781Z,100669.97
2022-08-24T01:47:08.791Z,100663.69
2022-08-24T01:49:41.510Z,100679.31
2022-08-24T01:52:12.725Z,100670.28
2022-08-24T01:54:43.345Z,100675.91
2022-08-24T01:57:16.318Z,100674.63
2022-08-24T01:59:44.467Z,100688.31
2022-08-24T02:02:24.026Z,100683.75
2022-08-24T02:04:50.961Z,100697.31
2022-08-24T02:07:19.217Z,100698.38
2022-08-24T02:09:47.068Z,100716.06
2022-08-24T02:12:14.562Z,100702.13
2022-08-24T02:14:42.063Z,100714.16
2022-08-24T02:17:09.702Z,100713.75
2022-08-24T02:19:37.626Z,100725.94
2022-08-24T02:22:06.055Z,100716.59
2022-08-24T02:24:33.302Z,100716.41
2022-08-24T02:27:00.489Z,100718.97
2022-08-24T02:29:27.412Z,100714.59
2022-08-24T02:31:54.451Z,100714.84
2022-08-24T02:34:21.570Z,100719.97
2022-08-24T02:36:51.507Z,100715.56
2022-08-24T02:39:18.474Z,100712.47
2022-08-24T02:41:45.640Z,100712.06
2022-08-24T02:44:12.605Z,100707.97
2022-08-24T02:46:39.942Z,100713.56
2022-08-24T02:49:11.374Z,100711.91
2022-08-24T02:51:44.530Z,100715.69
2022-08-24T02:54:17.741Z,100707.91
2022-08-24T02:56:46.169Z,100706.88
2022-08-24T02:59:13.900Z,100705.03
2022-08-24T03:01:41.155Z,100712.28
2022-08-24T03:04:08.375Z,100723.00
2022-08-24T03:06:35.251Z,100717.31
2022-08-24T03:09:03.494Z,100714.84
2022-08-24T03:11:30.451Z,100714.66
2022-08-24T03:13:59.151Z,100720.19
2022-08-24T03:16:28.303Z,100715.97
2022-08-24T03:18:55.359Z,100711.94
2022-08-24T03:21:22.305Z,100713.59
2022-08-24T03:23:49.277Z,100711.47
2022-08-24T03:26:16.240Z,100717.25
2022-08-24T03:28:44.650Z,100714.69
2022-08-24T03:31:12.786Z,100715.22
2022-08-24T03:33:39.785Z,100708.44
2022-08-24T03:36:12.342Z,100715.31
2022-08-24T03:38:41.469Z,100714.22
2022-08-24T03:41:08.943Z,100712.66
2022-08-24T03:43:47.092Z,100714.78
2022-08-24T03:46:21.399Z,100718.72
2022-08-24T03:48:49.242Z,100717.34
2022-08-24T03:51:21.281Z,100719.00
2022-08-24T03:53:48.268Z,100718.44
2022-08-24T03:56:16.414Z,100720.00
2022-08-24T03:58:43.527Z,100715.50
2022-08-24T04:01:11.622Z,100718.53
2022-08-24T04:03:43.320Z,100717.25
2022-08-24T04:06:12.206Z,100717.53
2022-08-24T04:08:41.439Z,100725.75
2022-08-24T04:11:15.300Z,100720.44
2022-08-24T04:13:42.298Z,100724.47
2022-08-24T04:16:14.668Z,100723.91
2022-08-24T04:18:42.101Z,100721.66
2022-08-24T04:21:25.499Z,100725.84
2022-08-24T04:23:53.839Z,100731.72
2022-08-24T04:26:44.193Z,100727.00
2022-08-24T04:29:13.526Z,100723.09
2022-08-24T04:31:42.918Z,100727.47
2022-08-24T04:34:11.585Z,100724.75
2022-08-24T04:36:42.199Z,100732.25
2022-08-24T04:39:09.222Z,100742.81
2022-08-24T04:41:36.876Z,100736.38
2022-08-24T04:44:04.761Z,100742.81
2022-08-24T04:46:31.707Z,100743.63
2022-08-24T04:48:58.614Z,100742.38
2022-08-24T04:51:25.579Z,100748.41
2022-08-24T04:53:52.504Z,100755.56
2022-08-24T04:56:25.616Z,100747.19
2022-08-24T04:58:54.229Z,100755.22
2022-08-24T05:01:24.896Z,100753.38
2022-08-24T05:03:54.621Z,100755.25
2022-08-24T05:06:30.479Z,100760.13
2022-08-24T05:08:58.590Z,100763.34
2022-08-24T05:11:26.833Z,100757.00
2022-08-24T05:13:56.232Z,100764.75
2022-08-24T05:16:25.281Z,100763.91
2022-08-24T05:18:52.380Z,100763.03
2022-08-24T05:21:21.770Z,100766.19
2022-08-24T05:23:49.156Z,100770.25
2022-08-24T05:26:21.444Z,100766.84
2022-08-24T05:28:48.423Z,100769.84
2022-08-24T05:31:19.909Z,100779.53
2022-08-24T05:33:48.189Z,100779.56
2022-08-24T05:36:29.003Z,100783.25
2022-08-24T05:38:58.763Z,100777.88
2022-08-24T05:41:26.105Z,100775.13
2022-08-24T05:43:53.676Z,100784.25
2022-08-24T05:46:21.084Z,100788.22
2022-08-24T05:48:52.711Z,100790.59
2022-08-24T05:51:21.327Z,100790.50
2022-08-24T05:53:48.485Z,100790.28
2022-08-24T05:56:18.108Z,100796.59
2022-08-24T05:58:46.235Z,100793.91
2022-08-24T06:01:16.110Z,100806.75
2022-08-24T06:03:44.144Z,100795.69
2022-08-24T06:06:13.464Z,100794.06
2022-08-24T06:08:49.969Z,100795.47
2022-08-24T06:11:37.214Z,100800.59
2022-08-24T06:14:12.033Z,100803.84
2022-08-24T06:16:44.143Z,100801.59
2022-08-24T06:19:15.404Z,100805.09
2022-08-24T06:21:44.178Z,100806.84
2022-08-24T06:24:11.050Z,100799.81
2022-08-24T06:26:56.200Z,100805.53
2022-08-24T06:29:23.134Z,100809.94
2022-08-24T06:31:54.609Z,100795.94
2022-08-24T06:34:26.063Z,100799.28
2022-08-24T06:36:53.116Z,100807.75
2022-08-24T06:39:20.868Z,100812.38
2022-08-24T06:41:47.733Z,100809.94
2022-08-24T06:44:14.654Z,100815.06
2022-08-24T06:46:41.623Z,100819.34
2022-08-24T06:49:08.659Z,100818.53
2022-08-24T06:51:35.738Z,100817.25
2022-08-24T06:54:02.684Z,100830.44
2022-08-24T06:56:29.633Z,100832.44
2022-08-24T06:58:56.733Z,100830.03
2022-08-24T07:01:26.587Z,100829.56
2022-08-24T07:03:53.685Z,100830.38
2022-08-24T07:06:22.015Z,100832.88
2022-08-24T07:08:49.255Z,100834.56
2022-08-24T07:11:18.509Z,100838.69
2022-08-24T07:13:47.624Z,100836.69
2022-08-24T07:16:19.478Z,100835.72
2022-08-24T07:18:49.836Z,100829.53
2022-08-24T07:21:19.685Z,100836.91
2022-08-24T07:23:49.213Z,100824.09
2022-08-24T07:26:22.635Z,100827.97
2022-08-24T07:28:56.276Z,100830.31
2022-08-24T07:31:23.207Z,100829.81
2022-08-24T07:33:50.212Z,100826.38
2022-08-24T07:36:22.513Z,100830.03
2022-08-24T07:38:54.392Z,100834.47
2022-08-24T07:41:51.370Z,100832.72
2022-08-24T07:44:12.498Z,100837.56
2022-08-24T07:46:41.151Z,100843.97
2022-08-24T07:49:20.293Z,100835.59
2022-08-24T07:51:55.739Z,100839.91
2022-08-24T07:54:22.762Z,100835.41
2022-08-24T07:56:50.278Z,100837.66
2022-08-24T07:59:18.095Z,100839.38
2022-08-24T08:01:45.041Z,100843.66
2022-08-24T08:04:14.077Z,100841.94
2022-08-24T08:06:42.195Z,100856.09
2022-08-24T08:09:09.213Z,100851.00
2022-08-24T08:11:36.142Z,100852.22
2022-08-24T08:14:03.102Z,100846.66
2022-08-24T08:16:30.194Z,100852.47
2022-08-24T08:19:12.490Z,100853.75
2022-08-24T08:22:10.179Z,100860.84
2022-08-24T08:24:43.720Z,100853.22
2022-08-24T08:27:17.444Z,100858.72
2022-08-24T08:29:44.834Z,100854.50
2022-08-24T08:32:17.266Z,100862.19
2022-08-24T08:34:45.643Z,100853.47
2022-08-24T08:37:14.100Z,100856.13
2022-08-24T08:39:41.693Z,100857.06
2022-08-24T08:42:28.496Z,100860.88
2022-08-24T08:45:10.076Z,100858.78
2022-08-24T08:48:26.305Z,100855.66
2022-08-24T08:51:33.675Z,100858.47
2022-08-24T08:54:26.812Z,100855.81
2022-08-24T08:57:24.329Z,100846.91
2022-08-24T09:00:19.534Z,100844.94
2022-08-24T09:03:32.649Z,100837.66
2022-08-24T09:06:36.933Z,100848.50
2022-08-24T09:09:37.526Z,100847.81
2022-08-24T09:12:44.616Z,100840.31
2022-08-24T09:15:45.420Z,100843.69
2022-08-24T09:18:42.915Z,100847.38
2022-08-24T09:21:34.007Z,100850.78
2022-08-24T09:24:30.093Z,100858.97
2022-08-24T09:27:40.117Z,100853.41
2022-08-24T09:30:23.761Z,100850.19
2022-08-24T09:33:21.021Z,100852.97
2022-08-24T09:36:14.770Z,100856.97
2022-08-24T09:39:10.714Z,100857.78
2022-08-24T09:42:22.542Z,100848.06
2022-08-24T09:45:25.504Z,100842.44
2022-08-24T09:48:16.941Z,100848.63
2022-08-24T09:51:21.090Z,100849.81
2022-08-24T09:54:44.006Z,100837.75
2022-08-24T09:57:59.361Z,100838.84
2022-08-24T10:00:41.902Z,100833.47
2022-08-24T10:03:46.114Z,100839.34
2022-08-24T10:06:38.699Z,100831.56
2022-08-24T10:09:40.938Z,100820.69
2022-08-24T10:12:25.491Z,100825.56
2022-08-24T10:15:17.927Z,100812.25
2022-08-24T10:18:08.882Z,100814.88
2022-08-24T10:21:17.867Z,100821.78
2022-08-24T10:24:07.474Z,100814.59
2022-08-24T10:27:04.717Z,100819.25
2022-08-24T10:29:58.700Z,100801.41
2022-08-24T10:32:56.965Z,100792.72
2022-08-24T10:35:33.710Z,100787.47
2022-08-24T10:38:49.859Z,100781.13
2022-08-24T10:41:47.614Z,100773.34
2022-08-24T10:44:49.073Z,100765.78
2022-08-24T10:47:30.792Z,100771.78
2022-08-24T10:50:21.077Z,100765.16
2022-08-24T10:52:58.071Z,100767.66
2022-08-24T10:55:30.330Z,100767.13
2022-08-24T10:58:28.692Z,100766.91
2022-08-24T11:00:56.631Z,100753.72
2022-08-24T11:03:28.580Z,100761.28
2022-08-24T11:05:57.320Z,100755.59
2022-08-24T11:08:28.484Z,100759.19
2022-08-24T11:11:13.130Z,100754.56
2022-08-24T11:14:00.413Z,100751.00
2022-08-24T11:16:47.981Z,100753.69
2022-08-24T11:19:32.633Z,100753.97
2022-08-24T11:22:06.641Z,100751.50
2022-08-24T11:24:48.621Z,100755.31
2022-08-24T11:27:34.269Z,100733.53
2022-08-24T11:30:25.261Z,100734.84
2022-08-24T11:33:00.536Z,100732.00
2022-08-24T11:35:36.282Z,100725.72
2022-08-24T11:38:16.359Z,100722.47
2022-08-24T11:41:01.799Z,100729.41
2022-08-24T11:44:04.529Z,100722.38
2022-08-24T11:46:50.969Z,100725.78
2022-08-24T11:49:24.670Z,100731.13
2022-08-24T11:52:00.450Z,100725.50
2022-08-24T11:55:02.195Z,100717.25
2022-08-24T11:57:50.058Z,100718.75
2022-08-24T12:00:21.955Z,100705.84
2022-08-24T12:03:39.127Z,100708.06
2022-08-24T12:06:32.474Z,100709.47
2022-08-24T12:09:39.670Z,100708.06
2022-08-24T12:12:57.243Z,100698.78
2022-08-24T12:16:18.185Z,100705.03
2022-08-24T12:18:54.357Z,100695.75
2022-08-24T12:21:26.521Z,100690.38
2022-08-24T12:24:05.548Z,100704.28
2022-08-24T12:27:00.564Z,100703.25
2022-08-24T12:30:05.499Z,100688.25
2022-08-24T12:32:46.265Z,100695.31
2022-08-24T12:35:35.495Z,100684.75
2022-08-24T12:38:23.212Z,100670.03
2022-08-24T12:43:51.412Z,100682.97
2022-08-24T12:46:25.996Z,100672.84
2022-08-24T12:49:01.330Z,100676.50
2022-08-24T12:52:09.569Z,100666.41
2022-08-24T12:55:40.984Z,100670.38
2022-08-24T12:58:34.598Z,100658.00
2022-08-24T13:01:06.834Z,100666.41
2022-08-24T13:03:38.946Z,100685.41
2022-08-24T13:06:20.112Z,100674.94
2022-08-24T13:08:51.213Z,100678.66
2022-08-24T13:11:24.335Z,100671.22
2022-08-24T13:13:57.355Z,100662.41
2022-08-24T13:16:55.199Z,100669.03
2022-08-24T13:19:37.464Z,100657.81
2022-08-24T13:22:10.268Z,100664.06
2022-08-24T13:24:40.142Z,100668.06
2022-08-24T13:27:12.809Z,100663.63
2022-08-24T13:30:08.603Z,100656.28
2022-08-24T13:32:39.102Z,100654.16
2022-08-24T13:35:39.910Z,100658.72
2022-08-24T13:38:34.556Z,100642.25
2022-08-24T13:41:22.585Z,100642.97
2022-08-24T13:44:00.453Z,100645.91
2022-08-24T13:47:00.649Z,100642.91
2022-08-24T13:49:53.115Z,100641.19
2022-08-24T13:52:37.978Z,100634.03
2022-08-24T13:55:31.830Z,100637.59
2022-08-24T13:58:36.410Z,100628.38
2022-08-24T14:01:25.421Z,100629.09
2022-08-24T14:04:10.727Z,100628.75
2022-08-24T14:07:08.550Z,100637.19
2022-08-24T14:10:08.973Z,100619.00
2022-08-24T14:13:14.556Z,100631.44
2022-08-24T14:16:59.838Z,100624.25
2022-08-24T14:20:14.283Z,100627.56
2022-08-24T14:23:20.971Z,100613.75
2022-08-24T14:25:49.222Z,100618.31
2022-08-24T14:28:40.635Z,100613.25
2022-08-24T14:31:27.906Z,100626.22
2022-08-24T14:34:08.054Z,100619.97
2022-08-24T14:36:54.998Z,100605.91
2022-08-24T14:39:35.812Z,100612.84
2022-08-24T14:42:24.670Z,100606.22
2022-08-24T14:45:12.694Z,100607.28
2022-08-24T14:48:24.458Z,100614.47
2022-08-24T14:51:03.148Z,100610.75
2022-08-24T14:54:12.068Z,100620.00
2022-08-24T14:57:18.718Z,100614.50
2022-08-24T15:00:02.984Z,100593.94
2022-08-24T15:02:29.741Z,100591.00
2022-08-24T15:05:22.133Z,100602.31
2022-08-24T15:08:28.563Z,100591.97
2022-08-24T15:11:18.656Z,100594.19
2022-08-24T15:14:04.473Z,100599.34
2022-08-24T15:17:02.226Z,100600.41
2022-08-24T15:19:29.046Z,100581.91
2022-08-24T15:22:08.943Z,100589.63
2022-08-24T15:24:35.740Z,100582.00
2022-08-24T15:27:27.566Z,100589.66
2022-08-24T15:30:02.479Z,100587.78
2022-08-24T15:32:48.835Z,100576.28
2022-08-24T15:35:47.911Z,100586.94
2022-08-24T15:38:30.352Z,100578.81
2022-08-24T15:41:17.991Z,100574.63
2022-08-24T15:43:56.825Z,100572.88
2022-08-24T15:46:31.922Z,100582.94
2022-08-24T15:49:07.040Z,100583.47
2022-08-24T15:51:43.557Z,100582.31
2022-08-24T15:54:30.993Z,100581.59
2022-08-24T15:57:28.206Z,100580.72
2022-08-24T16:00:13.599Z,100580.47
2022-08-24T16:02:41.864Z,100584.50
2022-08-24T16:05:25.091Z,100585.00
2022-08-24T16:08:18.051Z,100587.34
2022-08-24T16:10:48.922Z,100581.44
2022-08-24T16:13:18.729Z,100582.72
2022-08-24T16:16:02.688Z,100586.38
2022-08-24T16:18:49.439Z,100583.81
2022-08-24T16:21:29.646Z,100578.16
2022-08-24T16:24:21.535Z,100569.72
2022-08-24T16:26:48.780Z,100573.81
2022-08-24T16:29:37.241Z,100585.25
2022-08-24T16:32:53.789Z,100594.34
2022-08-24T16:35:24.194Z,100589.84
2022-08-24T16:37:52.748Z,100586.91
2022-08-24T16:40:20.088Z,100601.00
2022-08-24T16:42:47.300Z,100600.53
2022-08-24T16:45:19.198Z,100591.91
2022-08-24T16:47:47.383Z,100597.81
2022-08-24T16:50:17.349Z,100585.63
2022-08-24T16:52:45.071Z,100589.06
2022-08-24T16:55:14.435Z,100586.09
2022-08-24T16:57:42.306Z,100588.16
2022-08-24T17:00:15.505Z,100587.94
2022-08-24T17:02:43.568Z,100587.94
2022-08-24T17:05:11.347Z,100585.16
2022-08-24T17:07:38.203Z,100586.28
2022-08-24T17:10:09.135Z,100584.16
2022-08-24T17:12:37.077Z,100587.56
2022-08-24T17:15:06.682Z,100588.13
2022-08-24T17:17:34.365Z,100592.44
2022-08-24T17:20:01.951Z,100586.66
2022-08-24T17:22:29.103Z,100593.44
2022-08-24T17:24:56.022Z,100596.59
2022-08-24T17:27:30.899Z,100598.41
2022-08-24T17:29:59.885Z,100598.56
2022-08-24T17:32:27.033Z,100598.06
2022-08-24T17:34:54.044Z,100595.97
2022-08-24T17:37:20.913Z,100608.22
2022-08-24T17:39:55.192Z,100609.31
2022-08-24T17:42:49.096Z,100612.94
2022-08-24T17:45:10.332Z,100618.41
2022-08-24T17:47:37.275Z,100622.41
2022-08-24T17:50:06.456Z,100621.13
2022-08-24T17:52:33.433Z,100620.44
2022-08-24T17:55:00.264Z,100612.44
2022-08-24T17:57:27.696Z,100626.38
2022-08-24T17:59:54.638Z,100624.50
2022-08-24T18:02:22.833Z,100632.50
2022-08-24T18:04:50.409Z,100624.16
2022-08-24T18:07:36.173Z,100632.66
2022-08-24T18:10:11.004Z,100632.06
2022-08-24T18:12:38.852Z,100637.38
2022-08-24T18:15:06.780Z,100636.31
2022-08-24T18:17:39.955Z,100636.16
2022-08-24T18:20:11.620Z,100633.78
2022-08-24T18:22:44.897Z,100640.72
2022-08-24T18:25:14.433Z,100638.75
2022-08-24T18:27:46.481Z,100637.72
2022-08-24T18:30:30.498Z,100641.19
2022-08-24T18:32:59.508Z,100644.66
2022-08-24T18:35:26.528Z,100643.06
2022-08-24T18:37:53.363Z,100642.91
2022-08-24T18:40:21.647Z,100646.00
2022-08-24T18:42:50.755Z,100647.84
2022-08-24T18:45:18.034Z,100649.50
2022-08-24T18:47:45.103Z,100655.13
2022-08-24T18:50:21.147Z,100651.88
2022-08-24T18:52:48.189Z,100650.59
2022-08-24T18:55:16.755Z,100650.00
2022-08-24T18:57:43.605Z,100655.84
2022-08-24T19:00:11.584Z,100652.56
2022-08-24T19:02:40.529Z,100655.28
2022-08-24T19:05:12.917Z,100656.78
2022-08-24T19:07:45.930Z,100654.31
2022-08-24T19:10:21.449Z,100661.69
2022-08-24T19:12:55.878Z,100655.75
2022-08-24T19:15:32.190Z,100658.66
2022-08-24T19:18:09.625Z,100657.00
2022-08-24T19:20:42.339Z,100654.44
2022-08-24T19:23:18.106Z,100657.06
2022-08-24T19:25:46.019Z,100665.22
2022-08-24T19:28:13.777Z,100661.81
2022-08-24T19:30:42.308Z,100661.09
2022-08-24T19:33:13.810Z,100651.97
2022-08-24T19:35:41.547Z,100648.19
2022-08-24T19:38:08.944Z,100650.72
2022-08-24T19:40:35.887Z,100650.59
2022-08-24T19:43:06.163Z,100641.81
2022-08-24T19:45:54.419Z,100644.75
2022-08-24T19:48:23.247Z,100645.38
2022-08-24T19:50:52.011Z,100643.97
2022-08-24T19:53:19.438Z,100638.69
2022-08-24T19:55:50.110Z,100646.06
2022-08-24T19:58:31.832Z,100651.66
2022-08-24T20:01:11.966Z,100646.81
2022-08-24T20:03:39.035Z,100648.47
2022-08-24T20:06:06.229Z,100649.25
2022-08-24T20:08:33.094Z,100647.41
2022-08-24T20:11:00.524Z,100650.56
2022-08-24T20:13:28.167Z,100657.56
2022-08-24T20:15:56.384Z,100646.66
2022-08-24T20:18:32.604Z,100649.44
2022-08-24T20:21:00.135Z,100654.81
2022-08-24T20:23:29.385Z,100648.22
2022-08-24T20:25:58.754Z,100653.53
2022-08-24T20:28:46.208Z,100650.63
2022-08-24T20:31:18.694Z,100651.91
2022-08-24T20:33:46.073Z,100649.06
2022-08-24T20:36:44.994Z,100655.09
2022-08-24T20:39:14.438Z,100658.97
2022-08-24T20:41:41.382Z,100655.25
2022-08-24T20:44:09.177Z,100656.91
2022-08-24T20:46:37.541Z,100664.78
2022-08-24T20:49:07.239Z,100659.88
2022-08-24T20:51:34.291Z,100664.44
2022-08-24T20:54:06.119Z,100656.84
2022-08-24T20:56:37.688Z,100663.25
2022-08-24T20:59:11.105Z,100662.00
2022-08-24T21:01:41.433Z,100660.56
2022-08-24T21:04:09.370Z,100659.63
2022-08-24T21:06:37.173Z,100658.63
2022-08-24T21:09:05.858Z,100659.69
2022-08-24T21:11:33.826Z,100663.56
2022-08-24T21:14:05.491Z,100665.03
2022-08-24T21:16:41.624Z,100662.19
2022-08-24T21:19:11.319Z,100663.91
2022-08-24T21:21:42.104Z,100659.25
2022-08-24T21:24:09.748Z,100663.72
2022-08-24T21:26:37.271Z,100662.97
2022-08-24T21:29:06.839Z,100662.75
2022-08-24T21:31:34.235Z,100665.28
2022-08-24T21:34:19.581Z,100664.06
2022-08-24T21:36:47.920Z,100666.75
2022-08-24T21:39:15.061Z,100670.50
2022-08-24T21:41:41.985Z,100673.00
2022-08-24T21:44:09.035Z,100666.34
2022-08-24T21:46:38.425Z,100671.56
2022-08-24T21:49:06.682Z,100676.09
2022-08-24T21:51:34.308Z,100674.69
2022-08-24T21:54:01.440Z,100680.13
2022-08-24T21:56:31.504Z,100683.38
2022-08-24T21:58:58.709Z,100678.84
2022-08-24T22:01:25.775Z,100681.19
2022-08-24T22:03:56.263Z,100684.88
2022-08-24T22:06:24.435Z,100685.06
2022-08-24T22:08:53.737Z,100680.84
2022-08-24T22:11:25.456Z,100684.72
2022-08-24T22:13:53.779Z,100680.41
2022-08-24T22:16:21.827Z,100676.28
2022-08-24T22:18:49.407Z,100680.41
2022-08-24T22:21:21.459Z,100676.13
2022-08-24T22:23:48.305Z,100679.00
2022-08-24T22:26:15.634Z,100681.88
2022-08-24T22:28:42.859Z,100683.16
2022-08-24T22:31:31.141Z,100679.69
2022-08-24T22:34:00.681Z,100677.59
2022-08-24T22:36:29.102Z,100677.63
2022-08-24T22:38:58.182Z,100682.59
2022-08-24T22:41:29.345Z,100675.97
2022-08-24T22:44:16.018Z,100679.06
2022-08-24T22:46:43.314Z,100675.81
2022-08-24T22:49:11.590Z,100674.81
2022-08-24T22:51:39.311Z,100674.59
2022-08-24T22:54:07.374Z,100683.06
2022-08-24T22:56:39.475Z,100677.72
2022-08-24T22:59:08.603Z,100672.13
2022-08-24T23:01:41.815Z,100679.56
2022-08-24T23:04:14.594Z,100673.97
2022-08-24T23:06:42.050Z,100671.38
2022-08-24T23:09:09.938Z,100669.31
2022-08-24T23:11:37.594Z,100666.00
2022-08-24T23:14:06.867Z,100668.88
2022-08-24T23:16:37.362Z,100668.28
2022-08-24T23:19:23.790Z,100672.19
2022-08-24T23:21:50.836Z,100667.91
2022-08-24T23:24:18.294Z,100667.66
2022-08-24T23:26:45.346Z,100674.31
2022-08-24T23:29:16.976Z,100681.53
2022-08-24T23:31:46.114Z,100683.44
2022-08-24T23:34:14.312Z,100683.22
2022-08-24T23:36:41.754Z,100686.56
2022-08-24T23:39:10.687Z,100681.00
2022-08-24T23:41:44.216Z,100675.03
2022-08-24T23:44:20.828Z,100670.09
2022-08-24T23:46:48.922Z,100676.72
2022-08-24T23:49:19.743Z,100671.78
2022-08-24T23:51:47.720Z,100661.53
2022-08-24T23:54:15.870Z,100664.59
2022-08-24T23:56:46.014Z,100663.38
2022-08-24T23:59:33.561Z,100658.41
